Okayama, Japan

5:07 PM JST on December 20, 2014 (GMT +0900)
Okayama | Change Station
CLOSE
Current Station
Airport
Location: Okayama,
Elevation: 794 ft
Nearby Weather Stations

Elev 794 ft 34.76 °N, 133.86 °E | Updated 7 minutes ago

Scattered Clouds
Scattered Clouds
41 °F
Feels Like 39 °F
N
4
Wind Variable Wind from SSW

Today
High -- | Low -- °F
--% Chance of Precip.
Yesterday
High -- | Low -- °F
Precip. -- in
7:06 AM 4:56 PM
Waning Crescent, 4% visible
Pressure 29.86 in
Visibility 5.0 miles
Clouds Few 0 ft
Scattered Clouds 1000 ft
Windchill 39 °F
Dew Point 39 °F
Humidity 93%
Rainfall 0.00 in
Snow Depth Not available.
UV 0 out of 12
Pollen Not available.
Air Quality Not available.
Flu Activity Not available.
METAR RJOB 200800Z 20003KT 120V240 8000 PRFG FEW000 SCT010 05/04 Q1011

More Conditions Fewer Conditions

Pressure 29.86 in
Visibility 5.0 miles
Clouds Few 0 ft
Scattered Clouds 1000 ft
Windchill 39 °F
Dew Point 39 °F
Humidity 93%
Rainfall 0.00 in
Snow Depth Not available.
UV 0 out of 12
Pollen Not available.
Air Quality Not available.
Flu Activity Not available.
METAR RJOB 200800Z 20003KT 120V240 8000 PRFG FEW000 SCT010 05/04 Q1011

More Conditions Fewer Conditions

10-Day Weather Forecast

Almanac

Astronomy

Dec. 20, 2014 Rise Set
Actual Time
Civil Twilight
Nautical Twilight
Astronomical Twilight
Moon
Length of Visible Light
Length of Day
Tomorrow will be .
, % of the Moon is Illuminated

Today's Extremes

Country Highs Country Lows

Community

WunderPhotos

Upload Photos

1,779,146 photos uploaded!

WunderBlogs® & News

Nearby

Air Quality

  Air Quality AQ Index Pollutant
Not available.

Snow Depth

Station Depth Elevation

Earthquake Activity

City Distance Mag. Time & Date
Minimum magnitude displayed is 2.5.

Coastal Water Temperatures

Place Temperature

Nearby Weather Stations